Flight Track Log - Related Links

Times and Time Zones

All times are in EDT time to prevent confusion due to time zone crossing. See the N9305N flight status page for this flight to view local times or setup timezone preferences in your user account.

Time Position Orientation Groundspeed Altitude Reporting Facility
EDT Latitude Longitude Course Direction KTS MPH feet Rate Location/Type
Mon 07:41:59 AM 28.5500 -81.3167 360° North 85 98 400  Level Orlando TRACON
Mon 07:42:29 AM 28.5500 -81.3167 60° Northeast 82 94 700 533 Climbing Orlando TRACON
Mon 07:43:29 AM 28.5667 -81.2833 60° Northeast 92 106 1,200 450 Climbing Orlando TRACON
Mon 07:44:29 AM 28.6000 -81.2667 24° Northeast 110 127 1,600 200 Climbing Orlando TRACON
Mon 07:45:29 AM 28.6167 -81.3000 300° West 107 123 1,600 248 Level Orlando TRACON
Mon 07:46:30 AM 28.6500 -81.3167 336° Northwest 103 119 2,100 248 Climbing Orlando TRACON
Mon 07:47:30 AM 28.6500 -81.3500 270° West 109 125 2,100  Level Orlando TRACON
Mon 07:48:30 AM 28.6500 -81.3667 270° West 96 110 2,100  Level Orlando TRACON
Mon 07:49:36 AM 28.6333 -81.4000 240° Southwest 100 115 2,100 -48 Level Orlando TRACON
Mon 07:50:36 AM 28.6333 -81.4333 270° West 101 116 2,000  Descending Orlando TRACON
Mon 07:51:30 AM 28.6167 -81.4667 240° Southwest 100 115 2,100 53 Climbing Orlando TRACON
Mon 07:52:30 AM 28.6000 -81.4833 221° Southwest 102 117 2,100  Level Orlando TRACON
Mon 07:53:30 AM 28.5833 -81.5167 240° Southwest 103 119 2,100  Level Orlando TRACON
Mon 07:54:30 AM 28.5833 -81.5500 270° West 99 114 2,100 -50 Level Orlando TRACON
Mon 07:55:30 AM 28.5667 -81.5667 221° Southwest 100 115 2,000  Descending Orlando TRACON
Mon 07:56:30 AM 28.5333 -81.5833 204° Southwest 106 122 2,100 50 Climbing Orlando TRACON
Mon 07:57:31 AM 28.5167 -81.5667 139° Southeast 106 122 2,100  Level Orlando TRACON
Mon 07:58:31 AM 28.4833 -81.5500 156° South 94 108 2,100  Level Orlando TRACON
Mon 07:59:31 AM 28.4833 -81.5167 90° East 105 121 2,100  Level Orlando TRACON
Mon 08:00:31 AM 28.4833 -81.4833 90° East 105 121 2,100 -50 Level Orlando TRACON
Mon 08:01:31 AM 28.5000 -81.4667 41° Northeast 100 115 2,000 -149 Descending Orlando TRACON
Mon 08:02:32 AM 28.5167 -81.4333 60° Northeast 96 110 1,800 -347 Descending Orlando TRACON
Mon 08:03:32 AM 28.5167 -81.4000 90° East 98 113 1,300 -500 Descending Orlando TRACON
Mon 08:04:32 AM 28.5333 -81.3667 60° Northeast 97 112 800 -229 Descending Orlando TRACON
Mon 08:07:02 AM 28.5500 -81.3167 69° East 92 106 500 59 Descending Orlando TRACON
Mon 08:07:56 AM 28.5667 -81.2833 60° Northeast 103 119 1,000 496 Climbing Orlando TRACON
Mon 08:09:03 AM 28.5833 -81.2667 41° Northeast 102 117 1,500 259 Climbing Orlando TRACON
Mon 08:10:15 AM 28.6333 -81.2500 16° North 117 135 1,600 100 Climbing Orlando TRACON
Mon 08:11:03 AM 28.6500 -81.2667 319° Northwest 111 128 1,700 313 Climbing Orlando TRACON
Mon 08:11:51 AM 28.6667 -81.2833 319° Northwest 89 102 2,100 190 Climbing Orlando TRACON
Mon 08:13:09 AM 28.6667 -81.3167 270° West 100 115 2,100  Level Orlando TRACON
Mon 08:13:57 AM 28.6667 -81.3500 270° West 100 115 2,100 -56 Level Orlando TRACON
Mon 08:14:57 AM 28.6500 -81.3833 240° Southwest 100 115 2,000  Descending Orlando TRACON
Mon 08:16:03 AM 28.6500 -81.4000 270° West 97 112 2,100 48 Climbing Orlando TRACON
Mon 08:17:03 AM 28.6333 -81.4333 240° Southwest 96 110 2,100  Level Orlando TRACON
Mon 08:18:03 AM 28.6333 -81.4667 270° West 99 114 2,100 149 Level Orlando TRACON
Mon 08:19:04 AM 28.6167 -81.4833 221° Southwest 91 105 2,400 397 Climbing Orlando TRACON
Mon 08:20:04 AM 28.6000 -81.5000 221° Southwest 91 105 2,900 300 Climbing Orlando TRACON
Mon 08:21:04 AM 28.5667 -81.5167 204° Southwest 101 116 3,000 95 Climbing Orlando TRACON
Mon 08:22:10 AM 28.5500 -81.5167 180° South 99 114 3,100 48 Climbing Orlando TRACON
Mon 08:23:10 AM 28.5167 -81.5333 204° Southwest 100 115 3,100  Level Orlando TRACON
Mon 08:23:59 AM 28.5000 -81.5333 180° South 102 117 3,100  Level Orlando TRACON
Mon 08:24:59 AM 28.4667 -81.5500 204° Southwest 101 116 3,100  Level Orlando TRACON
Mon 08:26:11 AM 28.4500 -81.5667 221° Southwest 100 115 3,100 -45 Level Orlando TRACON
Mon 08:27:11 AM 28.4333 -81.6000 240° Southwest 101 116 3,000  Descending Orlando TRACON
Mon 08:28:11 AM 28.4167 -81.6167 221° Southwest 112 129 3,100 56 Climbing Orlando TRACON
Mon 08:28:59 AM 28.4333 -81.6000 41° Northeast 114 131 3,100  Level Orlando TRACON
Mon 08:30:11 AM 28.4500 -81.5667 60° Northeast 113 130 3,100 -271 Level Orlando TRACON
Mon 08:31:12 AM 28.4667 -81.5333 60° Northeast 120 138 2,500 -496 Descending Orlando TRACON
Mon 08:32:12 AM 28.4833 -81.5000 60° Northeast 109 125 2,100 -200 Descending Orlando TRACON
Mon 08:33:12 AM 28.5000 -81.4667 60° Northeast 97 112 2,100  Level Orlando TRACON
Mon 08:34:12 AM 28.5000 -81.4500 90° East 101 116 2,100 -300 Level Orlando TRACON
Mon 08:35:12 AM 28.5167 -81.4167 60° Northeast 107 123 1,500 -574 Descending Orlando TRACON
Mon 08:36:07 AM 28.5167 -81.3833 90° East 102 117 1,000 -417 Descending Orlando TRACON
Mon 08:37:07 AM 28.5333 -81.3667 41° Northeast 85 98 700 -300 Descending Orlando TRACON

Login

Don't have an account? Register now (free) for customized features, flight alerts, and more!